createdAt,value
2018-06-02T00:01:02.506Z,99.90
2018-06-02T00:05:35.724Z,99.90
2018-06-02T00:10:08.905Z,99.90
2018-06-02T00:14:42.097Z,99.90
2018-06-02T00:19:15.278Z,99.90
2018-06-02T00:23:49.433Z,99.90
2018-06-02T00:28:22.610Z,99.90
2018-06-02T00:32:55.827Z,99.90
2018-06-02T00:37:29.674Z,99.90
2018-06-02T00:42:02.910Z,99.90
2018-06-02T00:46:36.065Z,99.90
2018-06-02T00:51:09.299Z,99.90
2018-06-02T00:55:42.595Z,99.90
2018-06-02T01:00:15.809Z,99.90
2018-06-02T01:04:48.990Z,99.90
2018-06-02T01:09:22.206Z,99.90
2018-06-02T01:13:55.398Z,99.90
2018-06-02T01:18:28.688Z,99.90
2018-06-02T01:23:02.671Z,99.90
2018-06-02T01:27:35.833Z,99.90
2018-06-02T01:32:09.018Z,99.90
2018-06-02T01:36:42.995Z,99.90
2018-06-02T01:41:16.215Z,99.90
2018-06-02T01:45:49.374Z,99.90
2018-06-02T01:50:23.318Z,99.90
2018-06-02T01:54:56.497Z,99.90
2018-06-02T01:59:30.445Z,99.90
2018-06-02T02:04:03.670Z,99.90
2018-06-02T02:08:36.891Z,99.90
2018-06-02T02:13:10.419Z,99.90
2018-06-02T02:17:43.643Z,99.90
2018-06-02T02:22:16.827Z,99.90
2018-06-02T02:26:50.039Z,99.90
2018-06-02T02:31:23.223Z,99.90
2018-06-02T02:35:56.408Z,99.90
2018-06-02T02:40:29.630Z,99.90
2018-06-02T02:45:02.859Z,99.90
2018-06-02T02:49:36.046Z,99.90
2018-06-02T02:54:09.240Z,99.90
2018-06-02T02:58:42.435Z,99.90
2018-06-02T03:03:15.622Z,99.90
2018-06-02T03:07:49.603Z,99.90
2018-06-02T03:12:22.787Z,99.90
2018-06-02T03:16:55.975Z,99.90
2018-06-02T03:21:29.157Z,99.90
2018-06-02T03:26:03.101Z,99.90
2018-06-02T03:30:36.294Z,99.90
2018-06-02T03:35:10.303Z,99.90
2018-06-02T03:39:43.498Z,99.90
2018-06-02T03:44:17.450Z,99.90
2018-06-02T03:48:51.686Z,99.90
2018-06-02T03:53:24.867Z,99.90
2018-06-02T03:57:58.080Z,99.90
2018-06-02T04:02:32.034Z,99.90
2018-06-02T04:07:05.224Z,99.90
2018-06-02T04:11:39.222Z,99.90
2018-06-02T04:16:13.946Z,99.90
2018-06-02T04:20:47.131Z,99.90
2018-06-02T04:25:20.327Z,99.90
2018-06-02T04:29:53.546Z,99.90
2018-06-02T04:34:26.739Z,99.90
2018-06-02T04:39:00.002Z,99.90
2018-06-02T04:43:33.986Z,99.90
2018-06-02T04:48:07.203Z,99.90
2018-06-02T04:52:40.394Z,99.90
2018-06-02T04:57:13.591Z,99.90
2018-06-02T05:01:46.803Z,99.90
2018-06-02T05:06:19.997Z,99.90
2018-06-02T05:10:53.370Z,99.90
2018-06-02T05:15:26.593Z,99.90
2018-06-02T05:20:00.000Z,99.90
2018-06-02T05:24:33.986Z,99.90
2018-06-02T05:29:08.464Z,99.90
2018-06-02T05:33:41.871Z,99.90
2018-06-02T05:38:15.838Z,99.90
2018-06-02T05:42:49.030Z,99.90
2018-06-02T05:47:22.249Z,99.90
2018-06-02T05:51:55.419Z,99.90
2018-06-02T05:56:29.369Z,99.90
2018-06-02T06:01:02.570Z,99.90
2018-06-02T06:05:35.936Z,99.90
2018-06-02T06:10:09.160Z,99.90
2018-06-02T06:14:43.090Z,99.90
2018-06-02T06:19:17.078Z,99.90
2018-06-02T06:23:50.273Z,99.90
2018-06-02T06:28:23.489Z,99.90
2018-06-02T06:32:57.026Z,99.90
2018-06-02T06:37:30.246Z,99.90
2018-06-02T06:42:04.233Z,99.90
2018-06-02T06:46:37.808Z,99.90
2018-06-02T06:51:11.807Z,99.90
2018-06-02T06:55:45.047Z,99.90
2018-06-02T07:00:18.270Z,99.90
2018-06-02T07:04:51.942Z,99.90
2018-06-02T07:09:25.925Z,99.90
2018-06-02T07:13:59.142Z,99.90
2018-06-02T07:18:32.374Z,99.90
2018-06-02T07:23:06.333Z,99.90
2018-06-02T07:27:39.608Z,99.90
2018-06-02T07:32:13.568Z,99.90
2018-06-02T07:36:46.785Z,99.90
2018-06-02T07:41:19.977Z,99.90
2018-06-02T07:45:53.193Z,99.90
2018-06-02T07:50:26.851Z,99.90
2018-06-02T07:55:00.878Z,99.90
2018-06-02T07:59:35.609Z,99.90
2018-06-02T08:04:08.858Z,99.90
2018-06-02T08:08:42.895Z,99.90
2018-06-02T08:13:17.039Z,99.90
2018-06-02T08:17:50.273Z,99.90
2018-06-02T08:22:23.461Z,99.90
2018-06-02T08:26:56.681Z,99.90
2018-06-02T08:31:29.902Z,99.90
2018-06-02T08:36:03.143Z,99.90
2018-06-02T08:40:36.379Z,99.90
2018-06-02T08:45:09.610Z,99.90
2018-06-02T08:49:42.890Z,99.90
2018-06-02T08:54:16.081Z,99.90
2018-06-02T08:58:49.279Z,99.90
2018-06-02T09:03:23.237Z,98.30
2018-06-02T09:07:56.400Z,98.20
2018-06-02T09:12:30.389Z,91.10
2018-06-02T09:17:03.575Z,91.10
2018-06-02T09:21:36.814Z,92.20
2018-06-02T09:26:10.030Z,93.40
2018-06-02T09:30:43.238Z,94.50
2018-06-02T09:35:17.201Z,95.40
2018-06-02T09:39:50.469Z,95.40
2018-06-02T09:44:23.690Z,93.50
2018-06-02T09:48:57.671Z,91.70
2018-06-02T09:53:30.900Z,91.70
2018-06-02T09:58:05.594Z,90.40
2018-06-02T10:02:38.873Z,90.40
2018-06-02T10:07:12.827Z,84.70
2018-06-02T10:11:46.014Z,84.60
2018-06-02T10:16:19.237Z,74.80
2018-06-02T10:20:52.420Z,72.80
2018-06-02T10:25:26.394Z,76.80
2018-06-02T10:29:59.619Z,76.80
2018-06-02T10:34:33.579Z,82.20
2018-06-02T10:39:07.581Z,82.50
2018-06-02T10:43:40.796Z,82.40
2018-06-02T10:48:15.050Z,84.30
2018-06-02T10:52:49.046Z,83.70
2018-06-02T10:57:22.331Z,83.60
2018-06-02T11:01:55.754Z,84.90
2018-06-02T11:06:28.985Z,83.50
2018-06-02T11:11:02.918Z,85.50
2018-06-02T11:15:36.863Z,83.10
2018-06-02T11:20:10.058Z,83.00
2018-06-02T11:24:43.247Z,81.70
2018-06-02T11:29:17.221Z,72.80
2018-06-02T11:33:50.434Z,72.70
2018-06-02T11:38:23.645Z,66.30
2018-06-02T11:42:56.990Z,62.00
2018-06-02T11:47:30.218Z,62.30
2018-06-02T11:52:03.402Z,65.60
2018-06-02T11:56:36.611Z,70.40
2018-06-02T12:01:10.558Z,75.50
2018-06-02T12:05:43.878Z,75.10
2018-06-02T12:10:17.547Z,73.60
2018-06-02T12:14:50.897Z,73.30
2018-06-02T12:19:24.772Z,67.80
2018-06-02T12:23:59.524Z,64.80
2018-06-02T12:28:32.710Z,64.60
2018-06-02T12:33:05.957Z,67.30
2018-06-02T12:37:39.914Z,72.30
2018-06-02T12:42:13.122Z,72.30
2018-06-02T12:46:46.325Z,71.80
2018-06-02T12:51:19.509Z,73.70
2018-06-02T12:55:53.505Z,81.90
2018-06-02T13:00:27.906Z,88.00
2018-06-02T13:05:01.172Z,88.00
2018-06-02T13:09:35.939Z,87.40
2018-06-02T13:14:09.979Z,87.40
2018-06-02T13:18:44.753Z,84.30
2018-06-02T13:23:19.100Z,79.40
2018-06-02T13:27:53.098Z,78.70
2018-06-02T13:32:26.749Z,79.00
2018-06-02T13:37:01.045Z,81.20
2018-06-02T13:41:35.947Z,81.00
2018-06-02T13:46:09.939Z,81.20
2018-06-02T13:50:43.160Z,80.70
2018-06-02T13:55:17.110Z,82.10
2018-06-02T13:59:50.365Z,82.00
2018-06-02T14:04:23.741Z,80.70
2018-06-02T14:08:56.927Z,78.30
2018-06-02T14:13:30.216Z,74.60
2018-06-02T14:18:03.642Z,73.70
2018-06-02T14:22:37.587Z,73.60
2018-06-02T14:27:10.803Z,73.50
2018-06-02T14:31:44.186Z,75.40
2018-06-02T14:36:17.363Z,78.60
2018-06-02T14:40:50.618Z,80.40
2018-06-02T14:45:23.814Z,80.10
2018-06-02T14:49:57.029Z,80.80
2018-06-02T14:54:30.243Z,80.10
2018-06-02T14:59:03.470Z,78.40
2018-06-02T15:03:36.726Z,77.40
2018-06-02T15:08:10.674Z,78.20
2018-06-02T15:12:43.954Z,78.00
2018-06-02T15:17:17.921Z,79.60
2018-06-02T15:21:51.130Z,79.60
2018-06-02T15:26:24.286Z,81.70
2018-06-02T15:30:58.329Z,83.40
2018-06-02T15:35:31.547Z,83.30
2018-06-02T15:40:04.762Z,82.40
2018-06-02T15:44:37.980Z,83.90
2018-06-02T15:49:11.166Z,84.90
2018-06-02T15:54:23.406Z,84.20
2018-06-02T15:58:57.882Z,84.00
2018-06-02T16:03:32.543Z,83.40
2018-06-02T16:08:06.986Z,81.80
2018-06-02T16:12:41.466Z,81.80
2018-06-02T16:17:16.010Z,83.10
2018-06-02T16:21:50.504Z,84.10
2018-06-02T16:30:59.949Z,85.20
2018-06-02T16:35:34.350Z,85.70
2018-06-02T16:40:08.594Z,87.70
2018-06-02T16:44:43.174Z,84.40
2018-06-02T16:49:17.754Z,86.80
2018-06-02T16:53:52.292Z,86.80
2018-06-02T16:58:27.031Z,86.60
2018-06-02T17:03:01.662Z,86.70
2018-06-02T17:07:36.742Z,87.20
2018-06-02T17:12:11.318Z,87.50
2018-06-02T17:16:45.678Z,88.00
2018-06-02T17:21:20.055Z,88.50
2018-06-02T17:25:55.730Z,89.60
2018-06-02T17:30:30.267Z,90.30
2018-06-02T17:35:04.746Z,90.40
2018-06-02T17:39:38.987Z,90.50
2018-06-02T17:44:14.113Z,90.40
2018-06-02T17:48:48.516Z,91.10
2018-06-02T17:53:23.031Z,91.90
2018-06-02T17:57:57.465Z,92.30
2018-06-02T18:02:31.713Z,92.50
2018-06-02T18:07:06.122Z,92.50
2018-06-02T18:11:40.398Z,92.80
2018-06-02T18:16:14.777Z,93.30
2018-06-02T18:20:49.379Z,93.90
2018-06-02T18:25:23.626Z,94.00
2018-06-02T18:39:07.258Z,94.70
2018-06-02T18:43:41.778Z,94.90
2018-06-02T18:48:16.153Z,95.70
2018-06-02T18:52:50.328Z,97.00
2018-06-02T18:57:25.527Z,97.80
2018-06-02T19:01:59.985Z,98.80
2018-06-02T19:06:34.533Z,99.90
2018-06-02T19:11:09.294Z,99.90
2018-06-02T19:15:43.870Z,99.90
2018-06-02T19:20:19.106Z,99.90
2018-06-02T19:24:54.693Z,99.90
2018-06-02T19:29:29.245Z,99.90
2018-06-02T19:34:03.835Z,99.90
2018-06-02T19:38:38.179Z,99.90
2018-06-02T19:47:47.794Z,99.90
2018-06-02T19:52:22.472Z,99.90
2018-06-02T19:56:57.255Z,99.90
2018-06-02T20:01:32.683Z,99.90
2018-06-02T20:10:41.173Z,99.90
2018-06-02T20:15:15.818Z,99.90
2018-06-02T20:19:50.194Z,99.90
2018-06-02T20:24:24.572Z,99.90
2018-06-02T20:28:59.306Z,99.90
2018-06-02T20:33:33.759Z,99.90
2018-06-02T20:38:09.434Z,99.90
2018-06-02T20:42:43.896Z,99.90
2018-06-02T20:47:19.324Z,99.90
2018-06-02T20:51:53.843Z,99.90
2018-06-02T20:56:28.967Z,99.90
2018-06-02T21:01:03.574Z,99.90
2018-06-02T21:05:38.006Z,99.90
2018-06-02T21:10:12.403Z,99.90
2018-06-02T21:14:47.034Z,99.90
2018-06-02T21:19:21.534Z,99.90
2018-06-02T21:23:55.918Z,99.90
2018-06-02T21:28:30.376Z,99.90
2018-06-02T21:33:04.918Z,99.90
2018-06-02T21:37:39.333Z,99.90
2018-06-02T21:42:13.796Z,99.90
2018-06-02T21:46:48.206Z,99.90
2018-06-02T21:51:22.668Z,99.90
2018-06-02T21:55:57.010Z,99.90
2018-06-02T22:00:31.314Z,99.90
2018-06-02T22:05:06.224Z,99.90
2018-06-02T22:09:40.698Z,99.90
2018-06-02T22:14:15.322Z,99.90
2018-06-02T22:18:49.797Z,99.90
2018-06-02T22:23:24.675Z,99.90
2018-06-02T22:27:59.171Z,99.90
2018-06-02T22:32:33.560Z,99.90
2018-06-02T22:41:44.178Z,99.90
2018-06-02T22:46:21.210Z,99.90
2018-06-02T22:50:55.530Z,99.90
2018-06-02T22:55:30.226Z,99.90
2018-06-02T23:00:05.327Z,99.90
2018-06-02T23:04:43.533Z,99.90
2018-06-02T23:09:17.979Z,99.90
2018-06-02T23:13:52.316Z,99.90
2018-06-02T23:18:26.753Z,99.90
2018-06-02T23:23:01.302Z,99.90
2018-06-02T23:27:35.922Z,99.90
2018-06-02T23:32:10.142Z,99.90
2018-06-02T23:36:45.355Z,99.90
2018-06-02T23:41:19.978Z,99.90
2018-06-02T23:45:54.507Z,99.90
2018-06-02T23:50:29.438Z,99.90
2018-06-02T23:55:03.887Z,99.90
2018-06-02T23:59:38.526Z,99.90
